Time;durP1;ratioP1;P1;durP2;ratioP2;P2;SDS_P1;SDS_P2;PMS_P1;PMS_P2;Temp;Humidity;BMP_temperature;BMP_pressure;BME280_temperature;BME280_humidity;BME280_pressure;Samples;Min_cycle;Max_cycle;Signal;HPM_P1;HPM_P2
2023/11/19 00:00:43;;;;;;;;;;;;;;;6.41;62.38;95108.22;4974990;28;20047;-69
2023/11/19 00:03:09;;;;;;;;;;;;;;;5.80;63.55;95108.41;4975934;28;20634;-69
2023/11/19 00:05:34;;;;;;;;;;;;;;;3.48;71.94;95124.09;4976287;28;20471;-69
2023/11/19 00:07:59;;;;;;;;;;;;;;;4.65;68.38;95129.53;4976537;28;19999;-69
2023/11/19 00:10:25;;;;;;;;;;;;;;;5.53;65.79;95126.97;4976487;28;19926;-69
2023/11/19 00:12:50;;;;;;;;;;;;;;;5.42;66.09;95117.53;4976039;28;19968;-69
2023/11/19 00:15:15;;;;;;;;;;;;;;;6.10;63.83;95090.34;4975267;28;20482;-69
2023/11/19 00:17:44;;;;;;;;;;;;;;;6.50;62.20;95106.44;4973528;28;19922;-69
2023/11/19 00:20:10;;;;;;;;;;;;;;;5.51;63.91;95107.00;4973217;28;19991;-69
2023/11/19 00:22:35;;;;;;;;;;;;;;;6.17;63.86;95103.72;4976103;28;20006;-69
2023/11/19 00:25:00;;;;;;;;;;;;;;;6.49;62.63;95102.97;4979310;28;19918;-69
2023/11/19 00:27:26;;;;;;;;;;;;;;;6.36;62.67;95094.66;4980771;28;20506;-68
2023/11/19 00:29:51;;;;;;;;;;;;;;;6.45;62.14;95091.03;4980606;28;19922;-68
2023/11/19 00:32:16;;;;;;;;;;;;;;;6.27;63.54;95093.00;4979542;28;20371;-68
2023/11/19 00:34:43;;;;;;;;;;;;;;;6.11;62.72;95087.53;4979379;28;19932;-68
2023/11/19 00:37:08;;;;;;;;;;;;;;;6.67;61.63;95079.97;4980095;28;19926;-68
2023/11/19 00:39:34;;;;;;;;;;;;;;;6.83;61.55;95085.25;4978699;28;19925;-68
2023/11/19 00:41:59;;;;;;;;;;;;;;;6.85;60.79;95077.97;4979934;28;19930;-68
2023/11/19 00:44:25;;;;;;;;;;;;;;;6.32;62.41;95077.47;4980367;28;19968;-68
2023/11/19 00:46:50;;;;;;;;;;;;;;;7.01;60.35;95076.31;4977816;28;19925;-68
2023/11/19 00:49:15;;;;;;;;;;;;;;;6.66;61.32;95068.56;4977569;28;20478;-68
2023/11/19 00:51:40;;;;;;;;;;;;;;;5.66;64.64;95065.81;4981225;28;20438;-68
2023/11/19 00:54:06;;;;;;;;;;;;;;;5.22;67.36;95058.88;4976349;28;19930;-68
2023/11/19 00:56:31;;;;;;;;;;;;;;;5.14;67.98;95061.47;4979103;28;20008;-68
2023/11/19 00:58:56;;;;;;;;;;;;;;;5.88;65.78;95049.50;4972123;28;19953;-68
2023/11/19 01:01:22;;;;;;;;;;;;;;;6.12;64.46;95036.31;4979136;28;19922;-68
2023/11/19 01:03:47;;;;;;;;;;;;;;;6.07;64.67;95048.38;4976839;28;19929;-68
2023/11/19 01:06:14;;;;;;;;;;;;;;;6.30;63.68;95047.72;4981393;28;20422;-68
2023/11/19 01:08:39;;;;;;;;;;;;;;;6.09;64.54;95041.13;4981015;28;19933;-68
2023/11/19 01:11:04;;;;;;;;;;;;;;;6.61;62.27;95039.16;4981227;28;19921;-68
2023/11/19 01:13:29;;;;;;;;;;;;;;;6.51;63.20;95049.91;4979994;28;20445;-68
2023/11/19 01:15:56;;;;;;;;;;;;;;;6.50;63.17;95054.34;4980843;28;19993;-68
2023/11/19 01:18:22;;;;;;;;;;;;;;;6.27;64.00;95053.34;4977592;28;19933;-68
2023/11/19 01:20:47;;;;;;;;;;;;;;;6.29;63.63;95054.81;4976774;28;19922;-68
2023/11/19 01:23:12;;;;;;;;;;;;;;;6.28;63.85;95054.97;4974397;28;20115;-68
2023/11/19 01:25:38;;;;;;;;;;;;;;;5.96;65.23;95058.25;4981199;28;19921;-68
2023/11/19 01:28:04;;;;;;;;;;;;;;;5.99;66.20;95047.38;4976087;28;19929;-68
2023/11/19 01:30:29;;;;;;;;;;;;;;;4.92;68.67;95051.25;4980876;28;19926;-68
2023/11/19 01:32:55;;;;;;;;;;;;;;;4.84;68.57;95033.56;4979454;28;19953;-68
2023/11/19 01:35:21;;;;;;;;;;;;;;;6.17;65.14;95027.06;4980517;28;20686;-68
2023/11/19 01:37:46;;;;;;;;;;;;;;;6.18;65.42;95029.53;4978035;28;19929;-70
2023/11/19 01:40:11;;;;;;;;;;;;;;;5.40;68.07;95037.66;4980504;28;19922;-70
2023/11/19 01:42:38;;;;;;;;;;;;;;;6.41;64.26;95034.19;4976299;28;19997;-70
2023/11/19 01:45:06;;;;;;;;;;;;;;;6.46;63.46;95039.78;4978506;28;20024;-70
2023/11/19 01:47:31;;;;;;;;;;;;;;;6.80;62.76;95045.09;4977869;28;20008;-70
2023/11/19 01:49:57;;;;;;;;;;;;;;;6.85;62.38;95033.00;4975238;28;20369;-70
2023/11/19 01:52:22;;;;;;;;;;;;;;;6.02;65.62;95024.25;4977431;28;19922;-70
2023/11/19 01:54:47;;;;;;;;;;;;;;;6.64;63.26;95025.59;4977452;28;20012;-70
2023/11/19 01:57:12;;;;;;;;;;;;;;;6.82;62.75;95016.63;4980874;28;19918;-70
2023/11/19 01:59:38;;;;;;;;;;;;;;;7.10;61.65;95014.38;4974955;28;20604;-70
2023/11/19 02:02:05;;;;;;;;;;;;;;;7.13;62.08;95014.06;4979333;28;19918;-70
2023/11/19 02:04:30;;;;;;;;;;;;;;;6.25;64.95;95016.50;4976738;28;19937;-70
2023/11/19 02:06:55;;;;;;;;;;;;;;;7.14;62.26;95007.75;4976863;28;19925;-70
2023/11/19 02:09:21;;;;;;;;;;;;;;;6.31;65.25;95012.34;4978861;28;20471;-70
2023/11/19 02:11:51;;;;;;;;;;;;;;;6.79;63.74;94999.25;4980553;28;20042;-70
2023/11/19 02:14:16;;;;;;;;;;;;;;;6.20;66.00;94998.50;4971962;28;20488;-70
2023/11/19 02:16:41;;;;;;;;;;;;;;;6.36;65.16;94988.91;4979688;28;19929;-70
2023/11/19 02:19:08;;;;;;;;;;;;;;;4.84;69.90;94986.09;4979561;28;19932;-70
2023/11/19 02:21:33;;;;;;;;;;;;;;;6.08;66.89;94983.94;4979308;28;20059;-70
2023/11/19 02:23:58;;;;;;;;;;;;;;;5.78;67.82;94992.34;4978880;28;20032;-70
2023/11/19 02:26:26;;;;;;;;;;;;;;;5.60;68.64;94985.41;4979143;28;20228;-70
2023/11/19 02:28:52;;;;;;;;;;;;;;;6.05;66.88;94997.50;4978711;28;20385;-70
2023/11/19 02:31:20;;;;;;;;;;;;;;;5.24;69.56;94996.19;4979182;28;19930;-70
2023/11/19 02:33:45;;;;;;;;;;;;;;;5.35;69.96;95005.63;4983686;28;19953;-70
2023/11/19 02:36:10;;;;;;;;;;;;;;;5.09;70.54;95002.06;4979509;28;19972;-70
2023/11/19 02:38:35;;;;;;;;;;;;;;;4.82;73.38;95008.34;4978397;28;19934;-70
2023/11/19 02:41:05;;;;;;;;;;;;;;;4.95;72.75;95008.75;4978924;28;20021;-70
2023/11/19 02:43:33;;;;;;;;;;;;;;;5.25;72.13;95002.28;4979536;28;20330;-71
2023/11/19 02:46:00;;;;;;;;;;;;;;;4.81;73.01;95006.69;4980668;28;19930;-70
2023/11/19 02:48:25;;;;;;;;;;;;;;;4.85;72.59;94997.47;4979480;28;19921;-68
2023/11/19 02:50:52;;;;;;;;;;;;;;;5.27;71.51;94989.78;4977536;28;20000;-68
2023/11/19 02:53:17;;;;;;;;;;;;;;;4.64;74.72;94984.66;4979448;28;20006;-67
2023/11/19 02:55:48;;;;;;;;;;;;;;;4.92;73.57;94971.28;4977804;28;19925;-68
2023/11/19 02:58:19;;;;;;;;;;;;;;;5.05;73.48;94968.22;4977710;28;19928;-68
2023/11/19 03:00:52;;;;;;;;;;;;;;;4.40;75.54;94980.91;4979419;28;20002;-68
2023/11/19 03:03:22;;;;;;;;;;;;;;;4.40;75.87;94973.84;4978808;28;19929;-68
2023/11/19 03:05:47;;;;;;;;;;;;;;;4.37;76.86;94966.22;4978858;28;19926;-68
2023/11/19 03:08:13;;;;;;;;;;;;;;;4.45;76.33;94975.97;4975344;28;20813;-68
2023/11/19 03:10:38;;;;;;;;;;;;;;;4.49;76.33;94981.78;4978914;28;20498;-68
2023/11/19 03:13:04;;;;;;;;;;;;;;;4.81;74.49;94983.78;4975658;28;19974;-68
2023/11/19 03:15:29;;;;;;;;;;;;;;;4.63;75.16;94978.56;4974405;28;19930;-68
2023/11/19 03:17:55;;;;;;;;;;;;;;;5.04;74.71;94967.38;4978736;28;19952;-68
2023/11/19 03:20:20;;;;;;;;;;;;;;;5.08;74.21;94967.94;4975396;28;19926;-67
2023/11/19 03:22:46;;;;;;;;;;;;;;;4.73;75.64;94981.09;4977821;28;21897;-68
2023/11/19 03:25:11;;;;;;;;;;;;;;;4.00;78.61;94996.25;4968594;28;20375;-68
2023/11/19 03:27:41;;;;;;;;;;;;;;;4.40;77.27;94975.63;4978959;28;20036;-69
2023/11/19 03:30:07;;;;;;;;;;;;;;;4.66;75.74;94974.81;4972581;28;19937;-68
2023/11/19 03:32:32;;;;;;;;;;;;;;;4.78;75.35;94970.91;4978177;28;19929;-68
2023/11/19 03:34:58;;;;;;;;;;;;;;;4.43;76.27;94957.69;4977320;28;19980;-67
2023/11/19 03:37:23;;;;;;;;;;;;;;;4.82;76.08;94960.84;4978970;28;19968;-67
2023/11/19 03:39:49;;;;;;;;;;;;;;;4.88;75.25;94957.59;4977484;28;19968;-67
2023/11/19 03:42:14;;;;;;;;;;;;;;;4.86;75.37;94966.66;4977403;28;19931;-67
2023/11/19 03:44:39;;;;;;;;;;;;;;;5.00;74.67;94958.13;4978155;28;20028;-67
2023/11/19 03:47:04;;;;;;;;;;;;;;;3.80;78.59;94956.91;4977766;28;19929;-67
2023/11/19 03:49:30;;;;;;;;;;;;;;;4.60;77.03;94968.34;4978705;28;20543;-67
2023/11/19 03:51:55;;;;;;;;;;;;;;;4.38;77.69;94961.78;4977075;28;19930;-67
2023/11/19 03:54:22;;;;;;;;;;;;;;;4.63;77.34;94954.81;4975160;28;19933;-68
2023/11/19 03:56:48;;;;;;;;;;;;;;;4.52;78.12;94950.66;4977532;28;19925;-67
2023/11/19 03:59:13;;;;;;;;;;;;;;;4.11;78.32;94955.69;4976821;28;19926;-68
2023/11/19 04:01:39;;;;;;;;;;;;;;;5.13;74.71;94952.44;4983180;28;19948;-67
2023/11/19 04:04:04;;;;;;;;;;;;;;;5.10;74.83;94955.38;4979063;28;20414;-67
2023/11/19 04:06:29;;;;;;;;;;;;;;;4.68;76.63;94949.94;4980925;28;19979;-67
2023/11/19 04:08:55;;;;;;;;;;;;;;;4.53;77.75;94956.78;4980604;28;19948;-68
2023/11/19 04:11:20;;;;;;;;;;;;;;;4.75;76.73;94955.41;4986346;28;20016;-67
2023/11/19 04:13:45;;;;;;;;;;;;;;;5.09;75.22;94935.28;4974989;28;20281;-67
2023/11/19 04:16:11;;;;;;;;;;;;;;;4.84;76.02;94935.97;4979055;28;20375;-67
2023/11/19 04:18:36;;;;;;;;;;;;;;;5.33;74.09;94931.88;4980058;28;20427;-67
2023/11/19 04:21:01;;;;;;;;;;;;;;;5.21;74.51;94946.38;4979002;28;19921;-67
2023/11/19 04:23:26;;;;;;;;;;;;;;;4.78;76.21;94955.09;4984911;28;19944;-67
2023/11/19 04:25:52;;;;;;;;;;;;;;;4.40;77.72;94958.03;4978978;28;19933;-67
2023/11/19 04:28:17;;;;;;;;;;;;;;;4.86;76.75;94951.63;4978074;28;20442;-67
2023/11/19 04:30:43;;;;;;;;;;;;;;;4.89;75.63;94959.25;4984559;28;20347;-67
2023/11/19 04:33:08;;;;;;;;;;;;;;;4.40;78.37;94960.66;4984224;28;20534;-67
2023/11/19 04:35:33;;;;;;;;;;;;;;;4.55;78.11;94949.50;4983977;28;19929;-67
2023/11/19 04:37:59;;;;;;;;;;;;;;;4.73;77.57;94946.00;4983360;28;19929;-67
2023/11/19 04:40:24;;;;;;;;;;;;;;;4.84;77.11;94949.16;4983089;28;19922;-67
2023/11/19 04:42:49;;;;;;;;;;;;;;;4.54;78.39;94959.25;4981469;28;19960;-67
2023/11/19 04:45:16;;;;;;;;;;;;;;;4.47;79.09;94945.03;4984467;28;19921;-68
2023/11/19 04:47:41;;;;;;;;;;;;;;;4.78;77.41;94951.59;4983574;28;19957;-67
2023/11/19 04:50:06;;;;;;;;;;;;;;;4.81;77.11;94953.94;4983629;28;19992;-67
2023/11/19 04:52:32;;;;;;;;;;;;;;;4.87;76.42;94941.94;4980666;28;19929;-68
2023/11/19 04:54:57;;;;;;;;;;;;;;;5.48;74.91;94939.19;4982491;28;19926;-67
2023/11/19 04:57:22;;;;;;;;;;;;;;;5.24;75.14;94935.50;4984769;28;19921;-68
2023/11/19 04:59:47;;;;;;;;;;;;;;;4.94;76.58;94943.75;4983901;28;20032;-67
2023/11/19 05:02:13;;;;;;;;;;;;;;;5.35;75.18;94944.91;4983297;28;19976;-67
2023/11/19 05:04:42;;;;;;;;;;;;;;;5.22;75.62;94946.22;4981176;28;20430;-68
2023/11/19 05:07:07;;;;;;;;;;;;;;;5.01;76.19;94940.50;4976715;28;20009;-67
2023/11/19 05:09:33;;;;;;;;;;;;;;;5.06;75.96;94951.41;4980681;28;20024;-70
2023/11/19 05:11:58;;;;;;;;;;;;;;;5.03;76.65;94954.38;4978068;28;19921;-70
2023/11/19 05:14:24;;;;;;;;;;;;;;;4.83;77.26;94941.44;4986501;28;20394;-70
2023/11/19 05:16:49;;;;;;;;;;;;;;;4.61;77.67;94953.34;4976772;28;19992;-70
2023/11/19 05:19:15;;;;;;;;;;;;;;;4.63;78.50;94949.56;4980627;28;20010;-70
2023/11/19 05:21:41;;;;;;;;;;;;;;;4.65;78.47;94942.31;4972148;28;19930;-70
2023/11/19 05:24:07;;;;;;;;;;;;;;;4.87;76.81;94948.03;4980811;28;19947;-70
2023/11/19 05:26:32;;;;;;;;;;;;;;;4.50;78.86;94957.06;4974921;28;19926;-70
2023/11/19 05:28:57;;;;;;;;;;;;;;;4.32;79.20;94960.59;4971843;28;19925;-70
2023/11/19 05:31:22;;;;;;;;;;;;;;;4.45;78.53;94965.44;4980682;28;19930;-70
2023/11/19 05:33:48;;;;;;;;;;;;;;;4.76;77.45;94954.41;4981089;28;19933;-70
2023/11/19 05:36:13;;;;;;;;;;;;;;;4.39;79.17;94964.25;4979247;28;19953;-70
2023/11/19 05:38:38;;;;;;;;;;;;;;;4.62;77.74;94960.28;4980040;28;19930;-70
2023/11/19 05:41:04;;;;;;;;;;;;;;;4.86;77.02;94962.19;4980183;28;20596;-70
2023/11/19 05:43:30;;;;;;;;;;;;;;;5.01;76.47;94961.59;4979180;28;20755;-70
2023/11/19 05:45:55;;;;;;;;;;;;;;;5.33;74.21;94974.13;4981513;28;19930;-70
2023/11/19 05:48:20;;;;;;;;;;;;;;;5.61;73.97;94978.28;4980254;28;19925;-70
2023/11/19 05:50:46;;;;;;;;;;;;;;;5.52;73.63;94985.38;4976594;28;19933;-70
2023/11/19 05:53:13;;;;;;;;;;;;;;;5.36;74.21;94965.03;4980563;28;19989;-70
2023/11/19 05:55:45;;;;;;;;;;;;;;;4.56;77.17;94975.72;4975201;28;20406;-70
2023/11/19 05:58:12;;;;;;;;;;;;;;;4.66;78.02;94980.88;4980559;28;19992;-70
2023/11/19 06:00:37;;;;;;;;;;;;;;;4.40;78.58;94988.81;4974612;28;19932;-70
2023/11/19 06:03:02;;;;;;;;;;;;;;;4.31;78.97;94986.13;4980329;28;20356;-70
2023/11/19 06:05:28;;;;;;;;;;;;;;;4.23;78.96;94983.44;4973412;28;19934;-70
2023/11/19 06:07:53;;;;;;;;;;;;;;;4.53;77.14;94994.47;4979823;28;19921;-70
2023/11/19 06:10:20;;;;;;;;;;;;;;;4.76;76.46;94988.69;4971746;28;19926;-70
2023/11/19 06:12:46;;;;;;;;;;;;;;;5.09;74.45;94977.50;4980005;28;19922;-70
2023/11/19 06:15:11;;;;;;;;;;;;;;;4.76;75.28;94983.41;4975127;28;19988;-70
2023/11/19 06:17:36;;;;;;;;;;;;;;;5.07;74.13;94974.19;4975189;28;19979;-70
2023/11/19 06:20:04;;;;;;;;;;;;;;;5.30;73.23;94989.44;4979932;28;20018;-67
2023/11/19 06:22:29;;;;;;;;;;;;;;;5.19;73.07;94983.47;4979303;28;20523;-68
2023/11/19 06:24:54;;;;;;;;;;;;;;;5.11;72.68;94982.63;4973936;28;20398;-68
2023/11/19 06:27:19;;;;;;;;;;;;;;;4.78;73.27;94996.44;4979677;28;20600;-67
2023/11/19 06:29:45;;;;;;;;;;;;;;;4.45;75.18;94995.28;4979471;28;19925;-67
2023/11/19 06:32:10;;;;;;;;;;;;;;;4.26;75.82;94987.56;4978015;28;19979;-67
2023/11/19 06:34:35;;;;;;;;;;;;;;;4.44;75.58;95009.44;4982233;28;20080;-67
2023/11/19 06:37:03;;;;;;;;;;;;;;;4.92;73.87;94990.59;4977894;28;19964;-68
2023/11/19 06:39:28;;;;;;;;;;;;;;;5.40;72.06;94992.78;4979185;28;20044;-68
2023/11/19 06:41:53;;;;;;;;;;;;;;;5.47;71.45;94991.16;4982489;28;19926;-68
2023/11/19 06:44:18;;;;;;;;;;;;;;;4.88;73.12;94989.25;4977685;28;19922;-68
2023/11/19 06:46:44;;;;;;;;;;;;;;;4.86;72.95;94988.56;4978072;28;20676;-67
2023/11/19 06:49:09;;;;;;;;;;;;;;;4.16;74.74;94998.19;4977932;28;19914;-67
2023/11/19 06:51:34;;;;;;;;;;;;;;;4.27;75.44;94992.69;4976436;28;20583;-67
2023/11/19 06:53:59;;;;;;;;;;;;;;;3.92;76.32;95003.09;4976870;28;20032;-67
2023/11/19 06:56:25;;;;;;;;;;;;;;;4.09;76.63;95003.25;4976077;28;20012;-67
2023/11/19 06:58:50;;;;;;;;;;;;;;;4.33;75.38;95007.06;4975549;28;20308;-68
2023/11/19 07:01:16;;;;;;;;;;;;;;;4.39;74.83;95009.06;4978889;28;20010;-67
2023/11/19 07:03:41;;;;;;;;;;;;;;;4.24;75.17;95021.97;4976735;28;20013;-69
2023/11/19 07:06:06;;;;;;;;;;;;;;;4.13;75.61;95009.88;4973764;28;22091;-68
2023/11/19 07:08:31;;;;;;;;;;;;;;;4.38;75.43;95012.69;4978024;28;19961;-68
2023/11/19 07:10:57;;;;;;;;;;;;;;;4.35;75.38;95020.09;4976061;28;20008;-68
2023/11/19 07:13:22;;;;;;;;;;;;;;;4.57;73.89;95019.59;4978098;28;19961;-67
2023/11/19 07:15:48;;;;;;;;;;;;;;;4.41;74.34;95016.81;4971895;28;19926;-68
2023/11/19 07:18:14;;;;;;;;;;;;;;;4.71;73.24;95015.56;4976337;28;19925;-68
2023/11/19 07:20:39;;;;;;;;;;;;;;;4.64;73.89;95022.41;4977812;28;20388;-68
2023/11/19 07:23:05;;;;;;;;;;;;;;;4.53;73.04;95012.13;4977622;28;19969;-68
2023/11/19 07:25:31;;;;;;;;;;;;;;;4.57;73.38;95026.66;4979392;28;19921;-68
2023/11/19 07:27:56;;;;;;;;;;;;;;;5.48;70.46;95019.19;4975277;28;20419;-68
2023/11/19 07:30:22;;;;;;;;;;;;;;;5.53;69.79;95037.19;4979253;28;20044;-70
2023/11/19 07:32:48;;;;;;;;;;;;;;;5.57;70.23;95029.78;4975685;28;19933;-70
2023/11/19 07:35:13;;;;;;;;;;;;;;;5.67;70.01;95037.56;4975276;28;19929;-70
2023/11/19 07:37:39;;;;;;;;;;;;;;;5.54;69.98;95035.41;4974097;28;19930;-70
2023/11/19 07:40:04;;;;;;;;;;;;;;;5.64;69.70;95024.69;4973078;28;19972;-70
2023/11/19 07:42:31;;;;;;;;;;;;;;;5.55;69.26;95021.19;4972991;28;19940;-70
2023/11/19 07:44:57;;;;;;;;;;;;;;;4.90;71.13;95031.31;4973260;28;19965;-70
2023/11/19 07:47:23;;;;;;;;;;;;;;;4.46;72.50;95035.66;4971989;28;20669;-70
2023/11/19 07:49:48;;;;;;;;;;;;;;;4.18;73.98;95035.75;4978602;28;19922;-70
2023/11/19 07:52:13;;;;;;;;;;;;;;;4.21;73.83;95045.19;4977826;28;19988;-69
2023/11/19 07:54:39;;;;;;;;;;;;;;;4.64;73.01;95048.78;4978197;28;19926;-69
2023/11/19 07:57:04;;;;;;;;;;;;;;;4.64;72.97;95063.78;4978137;28;19933;-70
2023/11/19 07:59:29;;;;;;;;;;;;;;;5.26;70.84;95052.28;4977461;28;19941;-70
2023/11/19 08:01:54;;;;;;;;;;;;;;;5.77;68.18;95042.69;4978085;28;19960;-70
2023/11/19 08:04:19;;;;;;;;;;;;;;;5.95;67.11;95040.75;4977973;28;19968;-70
2023/11/19 08:06:45;;;;;;;;;;;;;;;5.97;66.97;95041.44;4977360;28;20319;-70
2023/11/19 08:09:13;;;;;;;;;;;;;;;6.38;64.97;95039.78;4977898;28;19955;-70
2023/11/19 08:11:39;;;;;;;;;;;;;;;5.76;66.17;95039.25;4976061;28;20013;-70
2023/11/19 08:14:04;;;;;;;;;;;;;;;5.72;66.35;95043.19;4970357;28;19984;-70
2023/11/19 08:16:30;;;;;;;;;;;;;;;5.33;66.18;95026.06;4975513;28;19969;-70
2023/11/19 08:18:57;;;;;;;;;;;;;;;5.77;65.29;95037.41;4971887;28;19933;-70
2023/11/19 08:21:22;;;;;;;;;;;;;;;5.90;64.99;95037.78;4975630;28;19925;-70
2023/11/19 08:23:47;;;;;;;;;;;;;;;5.67;63.65;95030.47;4977765;28;19930;-70
2023/11/19 08:26:14;;;;;;;;;;;;;;;5.92;64.16;95027.88;4978463;28;19922;-70
2023/11/19 08:28:39;;;;;;;;;;;;;;;5.50;64.48;95021.69;4977145;28;19925;-70
2023/11/19 08:31:05;;;;;;;;;;;;;;;5.32;65.84;95014.69;4978228;28;20531;-70
2023/11/19 08:33:30;;;;;;;;;;;;;;;5.58;64.62;95020.88;4976318;28;20411;-70
2023/11/19 08:35:55;;;;;;;;;;;;;;;6.01;63.62;95027.91;4977849;28;19925;-70
2023/11/19 08:38:21;;;;;;;;;;;;;;;6.28;62.71;95034.66;4977614;28;19936;-70
2023/11/19 08:40:46;;;;;;;;;;;;;;;5.92;63.79;95035.78;4977752;28;19968;-70
2023/11/19 08:43:12;;;;;;;;;;;;;;;5.80;64.72;95037.09;4975396;28;19953;-70
2023/11/19 08:45:37;;;;;;;;;;;;;;;6.09;64.05;95033.19;4977825;28;19928;-70
2023/11/19 08:48:02;;;;;;;;;;;;;;;6.16;63.91;95041.28;4980969;28;19926;-70
2023/11/19 08:50:27;;;;;;;;;;;;;;;5.80;65.80;95039.72;4981686;28;19922;-70
2023/11/19 08:52:53;;;;;;;;;;;;;;;6.03;64.98;95031.19;4980598;28;20060;-70
2023/11/19 08:55:18;;;;;;;;;;;;;;;5.46;66.92;95025.63;4981435;28;19922;-70
2023/11/19 08:57:43;;;;;;;;;;;;;;;5.34;67.02;95030.38;4978494;28;19922;-70
2023/11/19 09:00:08;;;;;;;;;;;;;;;5.25;68.93;95036.59;4978195;28;19932;-69
2023/11/19 09:02:37;;;;;;;;;;;;;;;5.04;68.07;95035.16;4977821;28;19932;-70
2023/11/19 09:05:02;;;;;;;;;;;;;;;5.25;68.04;95039.25;4980283;28;19928;-70
2023/11/19 09:07:27;;;;;;;;;;;;;;;4.61;69.66;95072.81;4978758;28;19922;-70
2023/11/19 09:09:53;;;;;;;;;;;;;;;4.37;70.21;95052.38;4979431;28;19999;-69
2023/11/19 09:12:18;;;;;;;;;;;;;;;4.76;70.11;95046.72;4980221;28;19930;-70
2023/11/19 09:14:43;;;;;;;;;;;;;;;4.59;69.89;95061.59;4981451;28;19926;-70
2023/11/19 09:17:09;;;;;;;;;;;;;;;4.14;69.35;95077.38;4976983;28;19969;-70
2023/11/19 09:19:35;;;;;;;;;;;;;;;4.49;69.61;95081.97;4980886;28;20592;-70
2023/11/19 09:22:01;;;;;;;;;;;;;;;4.35;69.32;95080.69;4978592;28;19930;-70
2023/11/19 09:24:26;;;;;;;;;;;;;;;3.96;69.54;95081.81;4981056;28;20301;-70
2023/11/19 09:26:51;;;;;;;;;;;;;;;4.30;69.56;95089.91;4978545;28;19929;-70
2023/11/19 09:29:16;;;;;;;;;;;;;;;4.25;68.52;95086.06;4981264;28;19929;-70
2023/11/19 09:31:42;;;;;;;;;;;;;;;3.89;69.55;95087.69;4973591;28;20634;-70
2023/11/19 09:34:07;;;;;;;;;;;;;;;3.52;70.90;95080.72;4976827;28;19937;-70
2023/11/19 09:36:33;;;;;;;;;;;;;;;3.73;69.77;95090.13;4973787;28;20002;-69
2023/11/19 09:39:00;;;;;;;;;;;;;;;3.84;69.72;95103.09;4980201;28;19926;-69
2023/11/19 09:41:27;;;;;;;;;;;;;;;4.19;69.22;95093.56;4980519;28;20538;-70
2023/11/19 09:43:53;;;;;;;;;;;;;;;4.22;67.07;95104.78;4975488;28;19921;-70
2023/11/19 09:46:18;;;;;;;;;;;;;;;4.14;68.22;95087.09;4980539;28;19929;-70
2023/11/19 09:48:43;;;;;;;;;;;;;;;4.37;67.31;95087.47;4970110;28;19933;-70
2023/11/19 09:51:09;;;;;;;;;;;;;;;4.70;66.78;95095.63;4974475;28;19929;-68
2023/11/19 09:53:35;;;;;;;;;;;;;;;4.43;66.21;95096.59;4981746;28;19929;-67
2023/11/19 09:56:00;;;;;;;;;;;;;;;4.35;68.19;95086.78;4984485;28;20386;-67
2023/11/19 09:58:25;;;;;;;;;;;;;;;4.22;67.83;95084.53;4985265;28;20020;-67
2023/11/19 10:00:51;;;;;;;;;;;;;;;4.19;67.28;95077.75;4983877;28;20025;-67
2023/11/19 10:03:17;;;;;;;;;;;;;;;4.48;67.14;95067.09;4985514;28;19933;-67
2023/11/19 10:05:42;;;;;;;;;;;;;;;4.57;68.00;95072.31;4979635;28;19933;-67
2023/11/19 10:08:11;;;;;;;;;;;;;;;4.63;65.72;95084.03;4983530;28;20158;-67
2023/11/19 10:10:36;;;;;;;;;;;;;;;4.40;65.73;95063.44;4977805;28;20021;-67
2023/11/19 10:13:01;;;;;;;;;;;;;;;4.28;66.04;95069.91;4979480;28;20028;-67
2023/11/19 10:15:27;;;;;;;;;;;;;;;4.52;65.77;95069.28;4980457;28;20362;-67
2023/11/19 10:17:58;;;;;;;;;;;;;;;4.78;64.61;95063.22;4984154;28;19968;-67
2023/11/19 10:20:23;;;;;;;;;;;;;;;4.91;63.14;95054.88;4981789;28;19930;-67
2023/11/19 10:22:48;;;;;;;;;;;;;;;4.76;64.24;95064.38;4985293;28;19957;-67
2023/11/19 10:25:27;;;;;;;;;;;;;;;4.53;64.48;95068.31;4985081;28;19921;-67
2023/11/19 10:27:52;;;;;;;;;;;;;;;4.70;64.08;95053.44;4986520;28;19996;-67
2023/11/19 10:30:21;;;;;;;;;;;;;;;4.44;65.17;95067.44;4985170;28;20032;-67
2023/11/19 10:32:50;;;;;;;;;;;;;;;4.81;65.07;95048.88;4986105;28;19925;-67
2023/11/19 10:35:16;;;;;;;;;;;;;;;4.58;64.18;95055.50;4982270;28;20004;-67
2023/11/19 10:37:41;;;;;;;;;;;;;;;4.51;65.42;95043.06;4985427;28;20102;-67
2023/11/19 10:40:10;;;;;;;;;;;;;;;4.46;64.24;95038.28;4985615;28;19972;-67
2023/11/19 10:42:35;;;;;;;;;;;;;;;4.92;63.68;95051.25;4984443;28;19921;-67
2023/11/19 10:45:01;;;;;;;;;;;;;;;4.42;64.55;95052.75;4987777;28;20419;-67
2023/11/19 10:47:26;;;;;;;;;;;;;;;4.41;63.78;95041.38;4984703;28;19968;-67
2023/11/19 10:49:51;;;;;;;;;;;;;;;4.81;63.09;95055.00;4985191;28;20503;-67
2023/11/19 10:52:20;;;;;;;;;;;;;;;4.93;62.77;95033.63;4983928;28;19990;-67
2023/11/19 10:54:47;;;;;;;;;;;;;;;5.34;61.48;95046.22;4982979;28;19964;-67
2023/11/19 10:57:12;;;;;;;;;;;;;;;4.99;62.12;95053.28;4985849;28;19980;-66
2023/11/19 10:59:41;;;;;;;;;;;;;;;5.11;61.01;95038.88;4979817;28;19926;-69
2023/11/19 11:02:07;;;;;;;;;;;;;;;5.34;61.70;95033.03;4981290;28;19955;-66
2023/11/19 11:04:32;;;;;;;;;;;;;;;5.32;59.14;95035.81;4985848;28;20015;-67
2023/11/19 11:06:58;;;;;;;;;;;;;;;5.14;60.32;95022.69;4984741;28;19975;-67
2023/11/19 11:09:23;;;;;;;;;;;;;;;4.92;61.62;95045.16;4985259;28;20466;-66
2023/11/19 11:11:48;;;;;;;;;;;;;;;4.68;61.95;95042.22;4984074;28;19925;-67
2023/11/19 11:14:14;;;;;;;;;;;;;;;5.24;61.28;95021.75;4983885;28;19926;-67
2023/11/19 11:16:43;;;;;;;;;;;;;;;4.77;61.87;95015.91;4983220;28;20629;-67
2023/11/19 11:19:09;;;;;;;;;;;;;;;5.08;61.09;95028.63;4982032;28;20462;-67
2023/11/19 11:21:34;;;;;;;;;;;;;;;5.08;60.92;95039.16;4985159;28;20023;-67
2023/11/19 11:24:18;;;;;;;;;;;;;;;5.18;61.39;95024.06;4977811;28;20417;-67
2023/11/19 11:26:43;;;;;;;;;;;;;;;4.67;61.69;95048.50;4974493;28;19917;-67
2023/11/19 11:29:09;;;;;;;;;;;;;;;4.58;62.66;95039.69;4978595;28;19914;-67
2023/11/19 11:31:37;;;;;;;;;;;;;;;4.49;62.45;95045.06;4976591;28;20033;-67
2023/11/19 11:34:08;;;;;;;;;;;;;;;4.68;61.76;95033.47;4978085;28;20579;-66
2023/11/19 11:36:37;;;;;;;;;;;;;;;4.87;62.20;95029.81;4973696;28;20028;-67
2023/11/19 11:39:07;;;;;;;;;;;;;;;4.36;61.89;95051.56;4972531;28;20541;-67
2023/11/19 11:41:32;;;;;;;;;;;;;;;4.17;63.06;95029.66;4977374;28;20360;-66
2023/11/19 11:44:01;;;;;;;;;;;;;;;4.65;61.48;95045.16;4977762;28;19976;-67
2023/11/19 11:46:33;;;;;;;;;;;;;;;4.80;61.38;95032.22;4981193;28;19922;-67
2023/11/19 11:49:04;;;;;;;;;;;;;;;5.34;60.11;95069.97;4984643;28;19932;-66
2023/11/19 11:51:44;;;;;;;;;;;;;;;5.07;59.50;95054.16;4977896;28;20348;-67
2023/11/19 11:54:10;;;;;;;;;;;;;;;5.61;58.28;95023.19;4976568;28;19957;-67
2023/11/19 11:56:38;;;;;;;;;;;;;;;7.50;52.54;95021.50;4980819;28;20007;-66
2023/11/19 11:59:19;;;;;;;;;;;;;;;6.49;56.60;95028.06;4976846;28;20783;-67
2023/11/19 12:01:59;;;;;;;;;;;;;;;7.57;52.84;95016.34;4974633;28;19922;-67
2023/11/19 12:04:28;;;;;;;;;;;;;;;6.59;54.59;95018.16;4975884;28;19983;-67
2023/11/19 12:07:06;;;;;;;;;;;;;;;6.36;55.69;95010.88;4977705;28;19926;-67
2023/11/19 12:09:31;;;;;;;;;;;;;;;6.02;56.89;95008.41;4976468;28;19929;-67
2023/11/19 12:12:07;;;;;;;;;;;;;;;5.69;58.95;95007.38;4976559;28;20343;-70
2023/11/19 12:14:51;;;;;;;;;;;;;;;5.04;59.06;95009.59;4972149;28;19929;-70
2023/11/19 12:17:34;;;;;;;;;;;;;;;5.04;61.72;94992.94;4976717;28;20575;-70
2023/11/19 12:20:00;;;;;;;;;;;;;;;5.86;61.23;94968.56;4975836;28;19929;-70
2023/11/19 12:22:25;;;;;;;;;;;;;;;5.87;60.88;94982.63;4977990;28;19922;-70
2023/11/19 12:24:51;;;;;;;;;;;;;;;5.44;60.06;94986.19;4981417;28;19926;-70
2023/11/19 12:27:17;;;;;;;;;;;;;;;5.78;62.39;94994.19;4981109;28;20659;-70
2023/11/19 12:29:44;;;;;;;;;;;;;;;5.61;64.65;94988.84;4980835;28;19918;-70
2023/11/19 12:32:09;;;;;;;;;;;;;;;5.28;65.64;94988.78;4974239;28;19925;-70
2023/11/19 12:34:34;;;;;;;;;;;;;;;5.14;67.62;94996.31;4981641;28;19932;-70
2023/11/19 12:37:03;;;;;;;;;;;;;;;4.31;69.13;95003.72;4976801;28;20008;-70
2023/11/19 12:39:32;;;;;;;;;;;;;;;3.88;72.47;94991.22;4977215;28;19925;-71
2023/11/19 12:41:59;;;;;;;;;;;;;;;3.36;74.13;94999.72;4975746;28;19924;-71
2023/11/19 12:44:24;;;;;;;;;;;;;;;3.42;75.31;94992.09;4979684;28;19926;-70
2023/11/19 12:47:06;;;;;;;;;;;;;;;3.36;76.74;94997.09;4979132;28;19960;-70
2023/11/19 12:49:32;;;;;;;;;;;;;;;3.64;76.91;94994.47;4972835;28;20431;-70
2023/11/19 12:51:57;;;;;;;;;;;;;;;2.99;78.94;95001.47;4976744;28;19922;-70